Time;durP1;ratioP1;P1;durP2;ratioP2;P2;SDS_P1;SDS_P2;PMS_P1;PMS_P2;Temp;Humidity;BMP_temperature;BMP_pressure;BME280_temperature;BME280_humidity;BME280_pressure;Samples;Min_cycle;Max_cycle;Signal;HPM_P1;HPM_P2
2023/11/24 07:24:27;;;;;;;;;0.00;0.00;;;;;22.80;45.65;101869.81;5609270;23;46064;-73
2023/11/24 07:26:53;;;;;;;;;0.00;0.00;;;;;22.61;45.34;101848.66;4960043;28;45544;-74
2023/11/24 07:29:21;;;;;;;;;0.00;0.00;;;;;22.68;45.11;101853.34;4976618;28;45369;-74
2023/11/24 07:31:48;;;;;;;;;1.00;1.00;;;;;22.79;45.19;101874.31;4976122;28;45461;-74
2023/11/24 07:34:14;;;;;;;;;0.33;0.33;;;;;22.79;45.11;101881.44;4960976;28;46185;-73
2023/11/24 07:36:39;;;;;;;;;1.00;1.00;;;;;22.62;45.25;101846.84;4940677;28;45334;-72
2023/11/24 07:39:05;;;;;;;;;1.00;1.00;;;;;22.57;44.80;101839.38;4966255;28;45481;-72
2023/11/24 07:41:30;;;;;;;;;3.33;1.00;;;;;22.76;45.37;101871.13;4963803;28;45500;-71
2023/11/24 07:43:56;;;;;;;;;1.67;1.00;;;;;22.80;44.87;101886.56;4965027;28;50320;-73
2023/11/24 07:46:21;;;;;;;;;1.67;1.00;;;;;22.78;45.25;101880.59;4973101;28;45539;-74
2023/11/24 07:48:46;;;;;;;;;0.33;0.00;;;;;22.74;45.07;101871.31;4976138;28;45476;-74
2023/11/24 07:51:12;;;;;;;;;0.00;0.00;;;;;22.72;44.91;101860.00;4976585;28;45440;-73
2023/11/24 07:53:37;;;;;;;;;0.00;0.00;;;;;22.76;45.12;101879.09;4976344;28;45320;-74
2023/11/24 07:56:04;;;;;;;;;0.00;0.00;;;;;22.70;45.21;101862.00;4972650;28;45451;-74
2023/11/24 07:58:30;;;;;;;;;1.00;1.00;;;;;22.79;45.44;101884.94;4957300;28;45488;-74
2023/11/24 08:00:56;;;;;;;;;1.33;1.00;;;;;22.76;44.90;101866.69;4956900;28;45321;-72
2023/11/24 08:03:22;;;;;;;;;1.00;1.00;;;;;22.72;45.16;101867.97;4956737;28;46457;-75
2023/11/24 08:05:50;;;;;;;;;2.67;1.67;;;;;22.46;44.72;101827.22;4956841;28;45377;-74
2023/11/24 08:08:16;;;;;;;;;1.00;0.00;;;;;22.74;45.09;101866.81;4957154;28;45346;-72
2023/11/24 08:10:42;;;;;;;;;1.67;0.67;;;;;22.74;45.14;101876.63;4956213;28;45400;-74
2023/11/24 08:13:08;;;;;;;;;0.67;0.67;;;;;22.73;44.94;101865.16;4956576;28;46155;-74
2023/11/24 08:15:34;;;;;;;;;0.00;0.00;;;;;22.63;45.06;101848.53;4956719;28;45445;-74
2023/11/24 08:17:59;;;;;;;;;0.33;0.33;;;;;22.73;44.78;101861.69;4956948;28;45282;-75
2023/11/24 08:20:26;;;;;;;;;0.00;0.00;;;;;22.77;45.21;101870.97;4955662;28;45508;-74
2023/11/24 08:22:51;;;;;;;;;1.00;0.00;;;;;22.72;45.12;101867.97;4956356;28;47080;-74
2023/11/24 08:25:17;;;;;;;;;1.00;1.00;;;;;22.77;45.09;101864.84;4955927;28;45367;-74
2023/11/24 08:27:44;;;;;;;;;2.00;2.00;;;;;22.66;44.97;101856.16;4956670;28;45241;-74
2023/11/24 08:30:10;;;;;;;;;0.00;0.00;;;;;22.74;44.78;101869.47;4962183;28;45267;-74
2023/11/24 08:32:39;;;;;;;;;1.00;1.00;;;;;22.63;44.51;101849.34;4962666;28;46074;-72
2023/11/24 08:35:05;;;;;;;;;0.00;0.00;;;;;22.77;44.82;101867.50;4962849;28;45295;-74
2023/11/24 08:37:30;;;;;;;;;0.00;0.00;;;;;22.76;44.66;101865.84;4963061;28;45374;-74
2023/11/24 08:39:56;;;;;;;;;0.00;0.00;;;;;22.72;44.58;101849.41;4962551;28;45366;-73
2023/11/24 08:42:23;;;;;;;;;5.00;1.00;;;;;22.69;44.73;101833.78;4962490;28;45350;-73
2023/11/24 08:44:48;;;;;;;;;0.00;0.00;;;;;22.69;45.12;101850.50;4962780;28;45421;-73
2023/11/24 08:47:13;;;;;;;;;1.00;1.00;;;;;22.77;44.70;101846.28;4963064;28;45565;-73
2023/11/24 08:49:39;;;;;;;;;1.33;1.00;;;;;22.76;44.73;101840.16;4962933;28;45409;-73
2023/11/24 08:52:04;;;;;;;;;1.67;1.67;;;;;22.76;44.60;101842.78;4962645;28;46442;-73
2023/11/24 08:54:29;;;;;;;;;0.00;0.00;;;;;22.69;44.56;101831.13;4962620;28;45429;-73
2023/11/24 08:56:55;;;;;;;;;1.00;0.33;;;;;22.74;44.45;101840.28;4962785;28;45412;-73
2023/11/24 08:59:23;;;;;;;;;3.00;1.33;;;;;22.68;44.34;101821.50;4962926;28;45477;-73
2023/11/24 09:01:51;;;;;;;;;0.33;0.33;;;;;22.76;44.75;101839.31;4962427;28;46443;-73
2023/11/24 09:04:17;;;;;;;;;0.33;0.33;;;;;22.71;44.78;101834.50;4961278;28;45362;-73
2023/11/24 09:06:42;;;;;;;;;1.00;0.00;;;;;22.58;44.26;101806.56;4962585;28;45356;-73
2023/11/24 09:09:08;;;;;;;;;1.33;1.00;;;;;22.64;44.48;101815.69;4962070;28;52515;-73
2023/11/24 09:11:34;;;;;;;;;1.00;1.00;;;;;22.74;44.12;101829.69;4962308;28;46221;-73
2023/11/24 09:14:02;;;;;;;;;1.33;0.00;;;;;22.75;44.56;101830.50;4962333;28;45563;-73
2023/11/24 09:16:28;;;;;;;;;1.00;1.00;;;;;22.77;44.14;101835.69;4962700;28;45396;-73
2023/11/24 09:18:53;;;;;;;;;1.00;1.00;;;;;22.65;44.37;101820.00;4962367;28;45439;-73
2023/11/24 09:21:19;;;;;;;;;0.00;0.00;;;;;22.77;44.62;101840.97;4962107;28;47228;-73
2023/11/24 09:23:44;;;;;;;;;1.33;1.00;;;;;22.62;44.60;101815.03;4961636;28;45492;-73
2023/11/24 09:26:10;;;;;;;;;1.00;1.00;;;;;22.76;44.58;101840.16;4962301;28;45370;-73
2023/11/24 09:28:38;;;;;;;;;0.33;0.33;;;;;22.76;44.29;101832.19;4962470;28;45349;-73
2023/11/24 09:31:08;;;;;;;;;4.00;0.00;;;;;22.77;44.92;101843.63;4962420;28;46040;-73
2023/11/24 09:33:37;;;;;;;;;0.00;0.00;;;;;22.77;44.44;101838.31;4962160;28;45318;-73
2023/11/24 09:36:03;;;;;;;;;1.67;1.33;;;;;22.74;44.13;101824.38;4962428;28;45323;-73
2023/11/24 09:38:29;;;;;;;;;1.33;1.33;;;;;22.62;44.95;101796.44;4961999;28;45459;-72
2023/11/24 09:41:08;;;;;;;;;2.67;1.00;;;;;22.77;44.30;101817.09;4958837;28;46046;-73
2023/11/24 09:43:35;;;;;;;;;1.00;0.00;;;;;22.60;44.31;101796.63;4958968;28;45393;-73
2023/11/24 09:46:01;;;;;;;;;2.00;0.00;;;;;22.76;44.42;101818.91;4959052;28;45314;-73
2023/11/24 09:48:29;;;;;;;;;2.00;0.67;;;;;22.74;44.93;101813.75;4959029;28;45271;-73
2023/11/24 09:50:56;;;;;;;;;3.00;1.00;;;;;22.72;44.27;101815.75;4958482;28;47055;-73
2023/11/24 09:53:21;;;;;;;;;2.00;1.00;;;;;22.77;44.37;101811.78;4958658;28;45313;-73
2023/11/24 09:55:47;;;;;;;;;0.67;0.67;;;;;22.61;44.71;101786.84;4958732;28;45378;-73
2023/11/24 09:58:12;;;;;;;;;2.00;1.00;;;;;22.77;44.17;101817.09;4958991;28;45373;-73
2023/11/24 10:00:39;;;;;;;;;1.00;1.00;;;;;22.59;44.47;101784.34;4958592;28;45356;-73
2023/11/24 10:03:06;;;;;;;;;1.00;1.00;;;;;22.68;44.58;101781.72;4958757;28;45381;-73
2023/11/24 10:05:32;;;;;;;;;1.00;1.00;;;;;22.66;44.45;101789.00;4958237;28;45399;-73
2023/11/24 10:07:59;;;;;;;;;0.33;0.33;;;;;22.77;44.58;101798.53;4958753;28;45511;-73
2023/11/24 10:10:26;;;;;;;;;2.00;0.00;;;;;22.77;44.66;101804.66;4958560;28;47120;-73
2023/11/24 10:12:58;;;;;;;;;1.33;0.00;;;;;22.77;44.55;101806.50;4958519;28;45453;-73
2023/11/24 10:15:24;;;;;;;;;1.00;0.00;;;;;22.65;44.73;101790.00;4973129;28;45343;-72
2023/11/24 10:17:50;;;;;;;;;2.00;1.00;;;;;22.72;44.25;101813.09;4958656;28;45533;-73
2023/11/24 10:20:27;;;;;;;;;1.00;0.00;;;;;22.77;44.42;101812.59;4957769;28;45349;-73
2023/11/24 10:22:55;;;;;;;;;1.67;1.00;;;;;22.78;44.72;101826.72;4958142;28;45383;-73
2023/11/24 10:25:23;;;;;;;;;1.00;1.00;;;;;22.68;44.35;101802.94;4958244;28;45309;-73
2023/11/24 10:28:05;;;;;;;;;1.00;1.00;;;;;22.75;44.47;101803.97;4958186;28;45726;-72
2023/11/24 10:30:32;;;;;;;;;1.00;1.00;;;;;22.69;44.02;101799.31;4958098;28;46201;-72
2023/11/24 10:32:57;;;;;;;;;1.00;1.00;;;;;22.76;44.67;101795.03;4958334;28;45287;-73
2023/11/24 10:35:23;;;;;;;;;1.00;1.00;;;;;22.67;44.28;101782.69;4956708;28;45399;-72
2023/11/24 10:37:50;;;;;;;;;2.00;1.00;;;;;22.77;44.74;101799.34;4958516;28;45537;-73
2023/11/24 10:40:17;;;;;;;;;1.00;1.00;;;;;22.74;44.49;101786.41;4957906;28;45976;-72
2023/11/24 10:42:50;;;;;;;;;1.00;1.00;;;;;22.66;44.29;101775.75;4957788;28;45464;-73
2023/11/24 10:45:20;;;;;;;;;0.00;0.00;;;;;22.68;44.11;101768.47;4958172;28;45350;-73
2023/11/24 10:48:03;;;;;;;;;1.00;1.00;;;;;22.77;43.90;101780.78;4958220;28;45232;-72
2023/11/24 10:50:29;;;;;;;;;0.00;0.00;;;;;22.66;44.43;101757.19;4957670;28;46618;-73
2023/11/24 10:53:00;;;;;;;;;2.00;0.00;;;;;22.74;44.15;101768.66;4957471;28;45370;-72
2023/11/24 10:55:30;;;;;;;;;1.00;1.00;;;;;22.65;44.09;101756.34;4958027;28;45398;-72
2023/11/24 10:57:56;;;;;;;;;2.00;1.00;;;;;22.75;44.45;101761.53;4957992;28;45443;-73
2023/11/24 11:00:23;;;;;;;;;1.67;0.67;;;;;22.61;44.52;101741.75;4957782;28;47448;-73
2023/11/24 11:02:50;;;;;;;;;1.00;1.00;;;;;22.73;44.52;101756.41;4957622;28;45490;-72
2023/11/24 11:05:53;;;;;;;;;0.67;0.67;;;;;22.72;44.26;101760.03;4957522;28;45355;-73
2023/11/24 11:08:33;;;;;;;;;1.67;0.00;;;;;22.73;44.05;101767.00;4957707;28;45441;-73
2023/11/24 11:11:12;;;;;;;;;1.00;1.00;;;;;22.73;44.45;101760.88;4957445;28;45278;-73
2023/11/24 11:13:43;;;;;;;;;1.33;0.67;;;;;22.71;43.96;101760.22;4957397;28;45313;-72
2023/11/24 11:16:10;;;;;;;;;1.67;1.67;;;;;22.72;44.09;101751.25;4957645;28;45362;-73
2023/11/24 11:18:36;;;;;;;;;0.00;0.00;;;;;22.67;44.04;101743.75;4957316;28;45409;-73
2023/11/24 11:21:39;;;;;;;;;2.00;1.33;;;;;22.70;43.79;101743.47;4957395;28;45367;-73
2023/11/24 11:24:05;;;;;;;;;2.67;2.67;;;;;22.64;44.53;101725.50;4957008;28;45507;-73
2023/11/24 11:26:48;;;;;;;;;5.00;1.33;;;;;22.73;44.08;101739.66;4957580;28;45294;-73
2023/11/24 11:29:23;;;;;;;;;2.00;1.00;;;;;22.71;44.03;101731.03;4957485;28;45374;-73
2023/11/24 11:31:50;;;;;;;;;1.00;1.00;;;;;22.72;44.08;101728.19;4957050;28;47068;-72
2023/11/24 11:34:17;;;;;;;;;1.00;1.00;;;;;22.73;44.28;101718.44;4956832;28;45360;-73
2023/11/24 11:36:51;;;;;;;;;0.67;0.67;;;;;22.72;43.78;101717.59;4957223;28;45365;-73
2023/11/24 11:39:22;;;;;;;;;1.00;1.00;;;;;22.60;44.10;101693.19;4956352;28;45409;-73
2023/11/24 11:41:51;;;;;;;;;2.00;1.00;;;;;22.71;43.85;101710.66;4957234;28;45285;-73
2023/11/24 11:44:16;;;;;;;;;2.00;2.00;;;;;22.71;43.93;101717.78;4957173;28;45263;-72
2023/11/24 11:47:01;;;;;;;;;1.67;1.33;;;;;22.70;44.28;101708.13;4957319;28;45314;-74
2023/11/24 11:49:31;;;;;;;;;2.00;1.00;;;;;22.71;43.68;101701.84;4957441;28;45458;-73
2023/11/24 11:52:06;;;;;;;;;3.00;1.00;;;;;22.70;43.66;101710.78;4957106;28;46198;-73
2023/11/24 11:54:33;;;;;;;;;1.00;1.00;;;;;22.68;44.09;101705.63;4957089;28;45313;-73
2023/11/24 11:56:59;;;;;;;;;2.00;2.00;;;;;22.55;43.53;101681.41;4957210;28;45319;-73
2023/11/24 11:59:24;;;;;;;;;1.00;1.00;;;;;22.67;43.30;101711.06;4957143;28;45296;-73
2023/11/24 12:01:50;;;;;;;;;1.00;1.00;;;;;22.71;43.49;101707.16;4955432;28;47462;-74
2023/11/24 12:04:16;;;;;;;;;2.00;1.00;;;;;22.60;43.32;101692.34;4956291;28;45275;-74
2023/11/24 12:06:42;;;;;;;;;1.67;1.00;;;;;22.68;43.32;101702.13;4957104;28;45239;-73
2023/11/24 12:09:17;;;;;;;;;3.00;1.00;;;;;22.57;43.44;101693.50;4957180;28;45469;-74
2023/11/24 12:11:43;;;;;;;;;1.00;1.00;;;;;22.69;43.80;101696.66;4956924;28;45451;-73
2023/11/24 12:14:08;;;;;;;;;1.00;1.00;;;;;22.68;43.17;101702.13;4956883;28;45371;-73
2023/11/24 12:16:33;;;;;;;;;1.67;1.67;;;;;22.68;43.37;101710.94;4956473;28;46993;-73
2023/11/24 12:19:04;;;;;;;;;3.33;1.00;;;;;22.65;43.52;101700.66;4957021;28;45342;-74
2023/11/24 12:21:30;;;;;;;;;1.00;1.00;;;;;22.61;43.55;101700.13;4951352;28;47159;-72
2023/11/24 12:23:56;;;;;;;;;3.00;1.33;;;;;22.57;43.56;101690.84;4937579;28;45608;-73
2023/11/24 12:26:21;;;;;;;;;5.33;2.00;;;;;22.69;43.40;101698.50;4945355;28;45308;-71
2023/11/24 12:28:47;;;;;;;;;1.33;1.33;;;;;22.69;43.80;101707.28;4960578;28;45440;-72
2023/11/24 12:31:12;;;;;;;;;2.67;1.00;;;;;22.69;43.21;101693.19;4942696;28;64735;-72
2023/11/24 12:33:40;;;;;;;;;2.00;1.00;;;;;22.68;43.41;101695.03;4956412;28;45429;-72
2023/11/24 12:36:07;;;;;;;;;1.00;1.00;;;;;22.70;43.43;101702.84;4956235;28;45556;-72
2023/11/24 12:38:32;;;;;;;;;1.00;1.00;;;;;22.66;43.39;101691.72;4952242;28;45504;-72
2023/11/24 12:40:58;;;;;;;;;4.33;1.67;;;;;22.55;43.20;101673.44;4956033;28;45313;-72
2023/11/24 12:43:24;;;;;;;;;2.67;2.00;;;;;22.56;43.66;101669.81;4956132;28;45456;-72
2023/11/24 12:45:51;;;;;;;;;1.00;1.00;;;;;22.71;43.92;101697.38;4955585;28;45573;-72
2023/11/24 12:48:21;;;;;;;;;1.33;1.33;;;;;22.68;44.02;101688.88;4955516;28;45321;-72
2023/11/24 12:50:48;;;;;;;;;5.00;2.00;;;;;22.66;44.00;101690.88;4955120;28;48406;-72
2023/11/24 12:53:14;;;;;;;;;2.00;2.00;;;;;22.71;44.09;101704.50;4954773;28;45394;-72
2023/11/24 12:55:41;;;;;;;;;7.00;1.33;;;;;22.66;44.19;101697.00;4951316;28;45303;-72
2023/11/24 12:58:06;;;;;;;;;1.00;1.00;;;;;22.71;43.64;101699.19;4948237;28;45509;-71
2023/11/24 13:00:32;;;;;;;;;3.00;2.00;;;;;22.64;43.60;101683.06;4955403;28;46076;-71
2023/11/24 13:02:58;;;;;;;;;0.33;0.33;;;;;22.72;43.49;101691.06;4949303;28;45513;-71
2023/11/24 13:05:25;;;;;;;;;2.00;1.33;;;;;22.74;43.69;101690.91;4955932;28;45357;-72
2023/11/24 13:07:51;;;;;;;;;2.33;1.00;;;;;22.58;43.40;101668.66;4953395;28;45626;-73
2023/11/24 13:10:17;;;;;;;;;1.00;1.00;;;;;22.67;43.57;101671.28;4955199;28;45303;-72
2023/11/24 13:12:43;;;;;;;;;1.67;1.67;;;;;22.74;43.66;101690.91;4955812;28;45414;-72
2023/11/24 13:15:21;;;;;;;;;1.00;1.00;;;;;22.74;43.30;101689.06;4957049;28;45359;-72
2023/11/24 13:17:49;;;;;;;;;1.00;0.00;;;;;22.74;43.67;101683.75;4959439;28;45498;-72
2023/11/24 13:20:16;;;;;;;;;2.00;1.67;;;;;22.74;43.11;101681.13;4959045;28;46324;-73
2023/11/24 13:22:43;;;;;;;;;1.67;1.00;;;;;22.73;42.91;101682.13;4958909;28;45418;-73
2023/11/24 13:25:09;;;;;;;;;1.00;1.00;;;;;22.73;43.23;101678.63;4958986;28;45422;-73
2023/11/24 13:27:35;;;;;;;;;0.00;0.00;;;;;22.58;42.75;101655.41;4959551;28;45520;-73
2023/11/24 13:30:00;;;;;;;;;1.00;1.00;;;;;22.63;42.85;101657.56;4958556;28;47059;-72
2023/11/24 13:32:26;;;;;;;;;0.33;0.33;;;;;22.70;43.05;101677.16;4959809;28;45423;-72
2023/11/24 13:34:52;;;;;;;;;1.00;0.33;;;;;22.71;43.03;101672.66;4958861;28;49341;-72
2023/11/24 13:37:18;;;;;;;;;0.33;0.33;;;;;22.70;42.63;101671.84;4972024;28;45437;-72
2023/11/24 13:39:45;;;;;;;;;1.00;1.00;;;;;22.61;42.78;101657.69;4958803;28;47270;-72
2023/11/24 13:42:12;;;;;;;;;2.67;1.00;;;;;22.67;42.76;101669.47;4958943;28;45410;-73
2023/11/24 13:44:40;;;;;;;;;2.00;1.33;;;;;22.63;42.99;101665.50;4958632;28;45361;-72
2023/11/24 13:47:07;;;;;;;;;3.67;1.00;;;;;22.63;43.33;101669.00;4959097;28;45255;-72
2023/11/24 13:49:33;;;;;;;;;1.67;1.00;;;;;22.68;42.87;101673.81;4958699;28;45518;-72
2023/11/24 13:51:58;;;;;;;;;2.00;1.00;;;;;22.54;42.88;101659.34;4958889;28;45369;-72
2023/11/24 13:54:25;;;;;;;;;2.00;1.00;;;;;22.68;42.89;101670.31;4959116;28;45288;-72
2023/11/24 13:56:53;;;;;;;;;1.33;1.00;;;;;22.67;43.05;101672.13;4958621;28;45605;-73
2023/11/24 13:59:20;;;;;;;;;1.00;1.00;;;;;22.58;42.51;101655.41;4958256;28;47097;-73
2023/11/24 14:01:46;;;;;;;;;1.67;1.00;;;;;22.67;42.73;101673.94;4958664;28;45303;-73
2023/11/24 14:04:14;;;;;;;;;1.00;1.00;;;;;22.61;42.68;101655.03;4958712;28;46208;-73
2023/11/24 14:06:41;;;;;;;;;0.67;0.00;;;;;22.66;43.05;101667.84;4958567;28;45343;-73
2023/11/24 14:09:17;;;;;;;;;0.00;0.00;;;;;22.66;42.59;101667.00;4958198;28;46122;-73
2023/11/24 14:11:51;;;;;;;;;1.67;1.67;;;;;22.65;42.68;101667.97;4958434;28;45396;-73
2023/11/24 14:14:18;;;;;;;;;2.00;0.00;;;;;22.59;42.69;101661.50;4958435;28;45303;-73
2023/11/24 14:16:44;;;;;;;;;0.33;0.33;;;;;22.58;42.33;101663.34;4958543;28;45374;-72
2023/11/24 14:19:10;;;;;;;;;2.00;0.00;;;;;22.60;42.96;101655.22;4958277;28;45406;-73
2023/11/24 14:21:36;;;;;;;;;1.00;1.00;;;;;22.52;42.77;101653.38;4958304;28;45304;-73
2023/11/24 14:24:03;;;;;;;;;0.33;0.33;;;;;22.50;42.10;101650.91;4958023;28;45323;-72
2023/11/24 14:26:29;;;;;;;;;1.00;1.00;;;;;22.44;42.38;101651.56;4957246;28;45539;-72
2023/11/24 14:28:55;;;;;;;;;1.67;1.00;;;;;22.59;42.69;101672.94;4957876;28;46160;-72
2023/11/24 14:31:20;;;;;;;;;0.00;0.00;;;;;22.63;42.75;101671.66;4958295;28;45419;-72
2023/11/24 14:33:47;;;;;;;;;1.00;1.00;;;;;22.64;42.22;101677.75;4958531;28;45346;-72
2023/11/24 14:36:14;;;;;;;;;1.00;1.00;;;;;22.50;42.01;101650.06;4958342;28;45401;-72
2023/11/24 14:38:44;;;;;;;;;1.67;0.00;;;;;22.64;42.73;101669.78;4958073;28;46077;-72
2023/11/24 14:41:13;;;;;;;;;2.00;1.00;;;;;22.60;42.38;101660.53;4957746;28;45437;-72
2023/11/24 14:43:39;;;;;;;;;1.00;1.00;;;;;22.47;42.78;101656.53;4958048;28;45305;-73
2023/11/24 14:46:04;;;;;;;;;2.67;1.00;;;;;22.57;42.46;101671.44;4958055;28;45516;-72
2023/11/24 14:48:30;;;;;;;;;0.00;0.00;;;;;22.54;42.20;101662.00;4958125;28;45936;-73
2023/11/24 14:50:55;;;;;;;;;0.67;0.67;;;;;22.54;42.31;101659.34;4957949;28;45386;-72
2023/11/24 14:53:21;;;;;;;;;1.33;0.00;;;;;22.51;41.99;101657.00;4957729;28;45289;-72
2023/11/24 14:55:50;;;;;;;;;0.67;0.67;;;;;22.54;42.44;101663.81;4957804;28;45565;-72
2023/11/24 14:58:16;;;;;;;;;2.00;0.00;;;;;22.46;42.08;101657.50;4957780;28;47074;-73
2023/11/24 15:00:41;;;;;;;;;1.67;1.67;;;;;22.49;42.17;101654.53;4957703;28;45470;-73
2023/11/24 15:03:08;;;;;;;;;2.33;0.00;;;;;22.56;42.55;101675.91;4958083;28;45738;-73
2023/11/24 15:05:38;;;;;;;;;0.67;0.67;;;;;22.47;42.38;101653.88;4957851;28;45354;-73
2023/11/24 15:08:08;;;;;;;;;1.00;1.00;;;;;22.51;42.01;101667.63;4957230;28;46365;-73
2023/11/24 15:10:34;;;;;;;;;2.00;1.00;;;;;22.60;42.27;101687.88;4957319;28;45446;-73
2023/11/24 15:13:07;;;;;;;;;2.33;1.00;;;;;22.56;42.63;101667.16;4957492;28;45414;-72
2023/11/24 15:15:33;;;;;;;;;2.67;1.00;;;;;22.40;42.04;101666.94;4957610;28;45474;-73
2023/11/24 15:18:02;;;;;;;;;1.33;1.33;;;;;22.48;42.26;101678.59;4957472;28;46351;-73
2023/11/24 15:20:32;;;;;;;;;2.00;1.00;;;;;22.57;42.48;101687.38;4957614;28;45468;-73
2023/11/24 15:22:58;;;;;;;;;2.67;1.00;;;;;22.40;42.09;101666.13;4957107;28;45452;-73
2023/11/24 15:25:26;;;;;;;;;2.00;1.00;;;;;22.47;42.49;101684.88;4956804;28;45472;-72
2023/11/24 15:27:55;;;;;;;;;0.67;0.67;;;;;22.58;42.40;101691.69;4957347;28;45331;-73
2023/11/24 15:30:22;;;;;;;;;1.00;1.00;;;;;22.59;42.31;101693.31;4957170;28;45361;-73
2023/11/24 15:32:48;;;;;;;;;1.00;1.00;;;;;22.50;42.01;101682.72;4957472;28;45440;-73
2023/11/24 15:35:14;;;;;;;;;2.00;2.00;;;;;22.53;42.65;101692.19;4957212;28;45308;-72
2023/11/24 15:37:39;;;;;;;;;0.00;0.00;;;;;22.43;42.60;101676.41;4956453;28;45951;-73
2023/11/24 15:40:05;;;;;;;;;1.00;1.00;;;;;22.54;42.03;101696.47;4956102;28;48330;-73
2023/11/24 15:42:31;;;;;;;;;1.00;1.00;;;;;22.46;41.96;101693.81;4957429;28;45308;-73
2023/11/24 15:44:58;;;;;;;;;1.67;1.00;;;;;22.56;42.07;101712.25;4957084;28;45393;-73
2023/11/24 15:47:24;;;;;;;;;0.33;0.33;;;;;22.48;42.16;101699.81;4957133;28;45949;-73
2023/11/24 15:49:50;;;;;;;;;1.33;0.00;;;;;22.56;41.99;101713.06;4957016;28;45444;-73
2023/11/24 15:52:15;;;;;;;;;2.00;1.00;;;;;22.56;42.54;101725.50;4957072;28;45511;-73
2023/11/24 15:54:41;;;;;;;;;1.00;0.00;;;;;22.55;41.92;101711.41;4956730;28;45337;-72
2023/11/24 15:57:08;;;;;;;;;2.00;1.00;;;;;22.49;42.41;101717.34;4957199;28;45529;-73
2023/11/24 15:59:40;;;;;;;;;2.00;1.00;;;;;22.56;42.42;101725.50;4956897;28;45394;-73
2023/11/24 16:02:06;;;;;;;;;3.67;1.00;;;;;22.56;41.91;101733.47;4956746;28;45329;-73
2023/11/24 16:04:35;;;;;;;;;1.00;0.67;;;;;22.54;41.99;101736.25;4957036;28;45335;-73
2023/11/24 16:07:06;;;;;;;;;0.33;0.33;;;;;22.48;42.25;101723.66;4956797;28;47401;-73
2023/11/24 16:09:34;;;;;;;;;1.00;1.00;;;;;22.51;42.24;101736.56;4956160;28;45346;-72
2023/11/24 16:12:01;;;;;;;;;0.00;0.00;;;;;22.54;42.24;101748.69;4956805;28;45443;-73
2023/11/24 16:14:32;;;;;;;;;2.00;2.00;;;;;22.53;42.22;101755.84;4956788;28;45390;-72
2023/11/24 16:16:58;;;;;;;;;1.00;1.00;;;;;22.50;42.16;101753.50;4956534;28;47129;-72
2023/11/24 16:19:24;;;;;;;;;1.00;1.00;;;;;22.52;42.16;101743.56;4956280;28;45373;-73
2023/11/24 16:21:50;;;;;;;;;0.00;0.00;;;;;22.46;42.32;101739.72;4956522;28;45430;-73
2023/11/24 16:24:19;;;;;;;;;0.00;0.00;;;;;22.55;42.06;101748.53;4956289;28;45468;-73
2023/11/24 16:26:48;;;;;;;;;0.00;0.00;;;;;22.55;41.75;101750.34;4956264;28;45461;-73
2023/11/24 16:29:14;;;;;;;;;1.00;1.00;;;;;22.48;42.05;101742.22;4956326;28;45394;-73
2023/11/24 16:31:45;;;;;;;;;0.33;0.00;;;;;22.55;42.09;101753.00;4956691;28;45385;-73
2023/11/24 16:34:18;;;;;;;;;2.00;1.00;;;;;22.51;41.93;101747.19;4956535;28;45305;-73
2023/11/24 16:36:44;;;;;;;;;0.00;0.00;;;;;22.54;42.20;101760.13;4956345;28;46960;-73
2023/11/24 16:39:17;;;;;;;;;0.00;0.00;;;;;22.53;42.28;101761.13;4955911;28;45318;-73
2023/11/24 16:41:42;;;;;;;;;1.00;1.00;;;;;22.44;41.98;101759.44;4956540;28;45235;-73
2023/11/24 16:44:07;;;;;;;;;0.00;0.00;;;;;22.52;41.95;101775.38;4956454;28;45371;-73
2023/11/24 16:46:34;;;;;;;;;0.00;0.00;;;;;22.52;42.14;101783.34;4956305;28;46069;-72
2023/11/24 16:48:59;;;;;;;;;0.00;0.00;;;;;22.49;42.09;101789.78;4956470;28;45358;-73
2023/11/24 16:51:25;;;;;;;;;3.00;1.00;;;;;22.51;42.31;101787.81;4958977;28;45309;-72
2023/11/24 16:53:50;;;;;;;;;1.00;0.00;;;;;22.51;42.31;101801.06;4959542;28;45457;-72
2023/11/24 16:56:17;;;;;;;;;2.00;1.67;;;;;22.52;41.75;101800.06;4959563;28;46015;-73
2023/11/24 16:58:42;;;;;;;;;0.67;0.67;;;;;22.51;42.32;101803.72;4959664;28;45374;-73
2023/11/24 17:01:08;;;;;;;;;0.00;0.00;;;;;22.48;42.07;101801.38;4959763;28;45370;-72
2023/11/24 17:03:37;;;;;;;;;2.00;1.00;;;;;22.51;42.14;101814.31;4959492;28;45430;-73
2023/11/24 17:06:03;;;;;;;;;2.00;1.00;;;;;22.50;42.28;101810.03;4959057;28;46643;-73
2023/11/24 17:08:29;;;;;;;;;1.00;0.67;;;;;22.50;42.13;101810.03;4959175;28;45391;-73
2023/11/24 17:10:54;;;;;;;;;0.67;0.67;;;;;22.50;41.99;101810.03;4959324;28;45883;-73
2023/11/24 17:13:19;;;;;;;;;0.00;0.00;;;;;22.48;42.23;101811.97;4959453;28;45338;-72
2023/11/24 17:15:48;;;;;;;;;1.67;0.00;;;;;22.50;42.13;101790.63;4959266;28;47380;-72
2023/11/24 17:18:17;;;;;;;;;1.33;1.33;;;;;22.51;42.03;101826.75;4959442;28;45342;-72
2023/11/24 17:20:43;;;;;;;;;2.00;0.33;;;;;22.46;41.48;101816.63;4959162;28;45255;-73
2023/11/24 17:23:15;;;;;;;;;2.67;1.00;;;;;22.39;41.66;101811.13;4959195;28;45446;-72
2023/11/24 17:25:42;;;;;;;;;2.00;0.00;;;;;22.51;41.21;101835.53;4958899;28;46153;-73
2023/11/24 17:28:07;;;;;;;;;1.00;1.00;;;;;22.51;41.52;101832.88;4959032;28;45351;-73
2023/11/24 17:30:33;;;;;;;;;1.67;0.67;;;;;22.40;41.63;101815.44;4959308;28;45333;-71
2023/11/24 17:32:59;;;;;;;;;1.00;1.00;;;;;22.50;41.27;101841.00;4959158;28;45413;-72
2023/11/24 17:35:24;;;;;;;;;0.00;0.00;;;;;22.50;40.97;101846.31;4958708;28;47194;-71
2023/11/24 17:37:49;;;;;;;;;0.33;0.00;;;;;22.34;41.52;101828.50;4959084;28;45405;-71
2023/11/24 17:40:15;;;;;;;;;1.67;0.00;;;;;22.45;41.58;101849.44;4958408;28;45373;-74
2023/11/24 17:42:41;;;;;;;;;1.00;0.00;;;;;22.32;41.22;101833.97;4958833;28;45762;-76
2023/11/24 17:45:15;;;;;;;;;0.33;0.33;;;;;22.42;41.27;101847.09;4958084;28;47201;-74
2023/11/24 17:47:41;;;;;;;;;0.67;0.67;;;;;22.52;41.21;101863.72;4957073;28;45421;-74
2023/11/24 17:50:09;;;;;;;;;1.00;1.00;;;;;22.46;41.83;101868.81;4947313;28;45438;-72
2023/11/24 17:52:35;;;;;;;;;1.00;1.00;;;;;22.44;41.75;101855.72;4958288;28;45303;-75
2023/11/24 17:55:01;;;;;;;;;0.00;0.00;;;;;22.50;41.54;101871.00;4958587;28;45641;-74
2023/11/24 17:57:26;;;;;;;;;1.00;0.00;;;;;22.52;41.39;101866.38;4958442;28;50023;-75
2023/11/24 17:59:53;;;;;;;;;1.67;0.67;;;;;22.32;41.41;101838.44;4958376;28;51854;-73
2023/11/24 18:02:18;;;;;;;;;1.33;0.00;;;;;22.52;41.36;101862.88;4957754;28;45344;-72
2023/11/24 18:04:44;;;;;;;;;0.00;0.00;;;;;22.50;41.38;101871.00;4958147;28;46530;-72
2023/11/24 18:07:09;;;;;;;;;0.00;0.00;;;;;22.47;41.86;101866.03;4973471;28;45418;-72
2023/11/24 18:09:36;;;;;;;;;0.00;0.00;;;;;22.50;41.95;101867.53;4958625;28;45402;-74
2023/11/24 18:12:02;;;;;;;;;0.00;0.00;;;;;22.18;41.31;101822.97;4958664;28;45417;-74
2023/11/24 18:14:27;;;;;;;;;0.67;0.00;;;;;22.49;41.65;101872.00;4958259;28;47110;-74
2023/11/24 18:16:52;;;;;;;;;0.00;0.00;;;;;22.49;42.01;101866.69;4957393;28;54096;-71
2023/11/24 18:19:18;;;;;;;;;1.67;1.00;;;;;22.33;41.81;101838.28;4957589;28;45675;-75
2023/11/24 18:21:43;;;;;;;;;1.67;1.00;;;;;22.46;41.29;101868.81;4958152;28;45287;-73
2023/11/24 18:24:09;;;;;;;;;2.67;0.67;;;;;22.37;41.21;101855.53;4957323;28;46114;-73
2023/11/24 18:26:34;;;;;;;;;1.67;1.00;;;;;22.48;41.81;101875.63;4956445;28;45381;-74
2023/11/24 18:29:01;;;;;;;;;1.00;1.00;;;;;22.48;41.63;101885.44;4957799;28;45479;-74
2023/11/24 18:31:30;;;;;;;;;0.67;0.67;;;;;22.35;41.67;101865.44;4957734;28;45688;-73
2023/11/24 18:33:55;;;;;;;;;0.67;0.00;;;;;22.47;41.51;101883.75;4969948;28;47236;-74
2023/11/24 18:36:21;;;;;;;;;0.33;0.33;;;;;22.48;41.29;101874.81;4957356;28;45562;-74
2023/11/24 18:38:47;;;;;;;;;1.00;0.00;;;;;22.39;41.31;101864.16;4957724;28;45660;-72
2023/11/24 18:41:13;;;;;;;;;0.00;0.00;;;;;22.48;41.75;101875.63;4958471;28;45354;-75
2023/11/24 18:43:38;;;;;;;;;1.67;0.00;;;;;22.39;41.24;101858.03;4957656;28;45342;-75
2023/11/24 18:46:04;;;;;;;;;1.67;1.67;;;;;22.48;41.34;101872.16;4958109;28;45308;-74
2023/11/24 18:48:30;;;;;;;;;2.00;0.00;;;;;22.48;41.81;101869.50;4957016;28;45398;-74